Time;durP1;ratioP1;P1;durP2;ratioP2;P2;SDS_P1;SDS_P2;PMS_P1;PMS_P2;Temp;Humidity;BMP_temperature;BMP_pressure;BME280_temperature;BME280_humidity;BME280_pressure;Samples;Min_cycle;Max_cycle;Signal;HPM_P1;HPM_P2
2022/11/17 00:00:41;;;;;;;22.10;13.50;;;;;;;4.15;84.57;99396.78;126942;1280;107604;-77
2022/11/17 00:03:47;;;;;;;16.60;11.40;;;;;;;4.13;84.38;99397.09;127014;1286;106672;-78
2022/11/17 00:06:53;;;;;;;14.50;11.10;;;;;;;4.11;84.57;99392.00;126832;1286;107520;-78
2022/11/17 00:09:58;;;;;;;12.10;9.00;;;;;;;4.09;84.38;99399.23;126916;1293;107372;-78
2022/11/17 00:16:27;;;;;;;14.10;10.30;;;;;;;3.95;84.34;99403.98;126904;1279;109196;-79
2022/11/17 00:22:55;;;;;;;10.60;8.30;;;;;;;4.01;84.34;99400.31;126949;1278;107526;-78
2022/11/17 00:26:01;;;;;;;11.90;8.60;;;;;;;4.02;84.25;99396.67;126867;1277;105530;-78
2022/11/17 00:29:06;;;;;;;10.80;8.50;;;;;;;4.04;84.16;99398.05;126994;1274;108035;-79
2022/11/17 00:35:38;;;;;;;9.10;7.20;;;;;;;3.99;83.91;99401.55;127048;1278;107553;-78
2022/11/17 00:38:43;;;;;;;9.00;7.10;;;;;;;3.96;83.91;99403.16;127068;1278;107502;-78
2022/11/17 00:41:49;;;;;;;9.40;6.60;;;;;;;3.90;83.70;99400.46;126934;1285;107533;-78
2022/11/17 00:44:55;;;;;;;8.30;5.30;;;;;;;3.88;84.03;99398.69;126852;1278;107524;-78
2022/11/17 00:48:00;;;;;;;6.80;4.90;;;;;;;3.90;84.00;99396.56;126891;1277;107347;-78
2022/11/17 00:51:06;;;;;;;8.10;5.50;;;;;;;3.93;83.87;99396.68;127044;1271;107369;-78
2022/11/17 00:54:14;;;;;;;8.30;5.40;;;;;;;3.94;83.43;99393.30;126847;1278;107411;-76
2022/11/17 00:57:19;;;;;;;7.50;5.50;;;;;;;3.94;83.76;99393.14;126910;1285;107264;-76
2022/11/17 01:00:25;;;;;;;8.10;5.80;;;;;;;3.95;83.58;99396.02;127144;1271;106497;-79
2022/11/17 01:03:31;;;;;;;6.80;5.20;;;;;;;3.93;83.52;99392.27;127300;1277;106759;-78
2022/11/17 01:06:38;;;;;;;8.10;5.40;;;;;;;3.90;83.48;99396.56;126931;1287;107524;-78
2022/11/17 01:09:44;;;;;;;6.20;4.70;;;;;;;3.87;83.51;99388.06;126901;1274;107493;-77
2022/11/17 01:12:49;;;;;;;7.40;5.30;;;;;;;3.85;83.51;99389.30;126915;1264;107539;-77
2022/11/17 01:15:55;;;;;;;5.90;4.50;;;;;;;3.83;83.61;99389.30;126984;1271;107359;-78
2022/11/17 01:19:02;;;;;;;6.00;4.60;;;;;;;3.82;83.14;99384.85;126941;1295;107598;-78
2022/11/17 01:22:08;;;;;;;7.10;4.70;;;;;;;3.82;83.23;99383.94;126832;1280;108273;-78
2022/11/17 01:25:13;;;;;;;7.60;4.90;;;;;;;3.83;83.22;99385.11;126784;1271;106605;-77
2022/11/17 01:28:19;;;;;;;6.50;5.00;;;;;;;3.83;83.02;99382.59;126862;1278;107333;-78
2022/11/17 01:31:26;;;;;;;6.50;4.60;;;;;;;3.82;83.06;99384.78;126860;1278;107334;-77
2022/11/17 01:34:32;;;;;;;7.10;5.30;;;;;;;3.81;82.99;99388.24;127013;1287;107524;-78
2022/11/17 01:37:38;;;;;;;6.40;4.60;;;;;;;3.78;83.24;99383.26;126812;1278;107503;-78
2022/11/17 01:40:43;;;;;;;6.30;4.90;;;;;;;3.78;83.09;99383.09;126948;1291;107542;-78
2022/11/17 01:43:51;;;;;;;6.40;5.10;;;;;;;3.74;82.83;99379.87;126817;1294;107687;-78
2022/11/17 01:46:57;;;;;;;7.70;4.60;;;;;;;3.70;82.74;99382.30;126935;1281;107506;-78
2022/11/17 01:50:07;;;;;;;5.20;3.90;;;;;;;3.70;82.99;99378.10;126783;1285;107655;-76
2022/11/17 01:53:16;;;;;;;5.40;4.10;;;;;;;3.74;82.94;99380.08;126881;1281;107562;-76
2022/11/17 01:56:27;;;;;;;6.30;4.20;;;;;;;3.76;82.46;99381.44;126834;1285;105704;-77
2022/11/17 01:59:37;;;;;;;5.40;4.40;;;;;;;3.76;82.46;99382.91;126835;1294;107249;-77
2022/11/17 02:02:43;;;;;;;7.30;4.60;;;;;;;3.71;82.00;99382.41;126774;1288;107030;-76
2022/11/17 02:05:56;;;;;;;7.80;4.50;;;;;;;3.66;82.03;99385.69;126990;1288;107506;-78
2022/11/17 02:09:01;;;;;;;;;;;;;;;3.63;82.41;99381.17;126870;1286;107385;-76
2022/11/17 02:12:12;;;;;;;5.20;4.20;;;;;;;3.62;82.39;99380.17;126861;1278;107532;-80
2022/11/17 02:15:17;;;;;;;5.90;4.40;;;;;;;3.59;82.38;99384.48;126903;1273;106600;-79
2022/11/17 02:18:23;;;;;;;6.20;4.50;;;;;;;3.56;82.29;99381.73;127297;1278;106476;-80
2022/11/17 02:21:52;;;;;;;5.50;4.50;;;;;;;3.54;82.37;99384.14;127025;1281;107174;-78
2022/11/17 02:25:15;;;;;;;5.20;3.60;;;;;;;3.57;82.22;99381.82;126935;1285;107278;-78
2022/11/17 02:28:25;;;;;;;4.80;3.70;;;;;;;3.60;82.15;99379.98;126941;1287;107550;-77
2022/11/17 02:31:39;;;;;;;4.30;3.60;;;;;;;3.63;81.76;99381.36;126751;1280;177149;-79
2022/11/17 02:34:53;;;;;;;4.70;3.50;;;;;;;3.60;81.35;99375.98;126873;1277;107538;-78
2022/11/17 02:38:06;;;;;;;5.70;3.90;;;;;;;3.55;80.95;99379.52;126759;1278;107612;-78
2022/11/17 02:41:21;;;;;;;5.10;3.70;;;;;;;3.45;80.48;99378.60;126784;1286;107680;-78
2022/11/17 02:44:35;;;;;;;5.70;4.00;;;;;;;3.40;81.08;99376.75;126773;1287;107526;-78
2022/11/17 02:47:46;;;;;;;4.80;3.60;;;;;;;3.38;80.78;99383.27;126835;1277;107523;-77
2022/11/17 02:50:54;;;;;;;5.80;3.90;;;;;;;3.31;80.66;99387.13;126951;1286;107239;-77
2022/11/17 02:54:01;;;;;;;4.20;3.30;;;;;;;3.25;80.19;99387.14;126935;1287;107537;-76
2022/11/17 02:57:26;;;;;;;6.90;4.10;;;;;;;3.16;80.58;99387.52;126928;1278;108648;-78
2022/11/17 03:00:36;;;;;;;4.90;3.90;;;;;;;3.11;80.52;99388.64;126799;1280;107502;-78
2022/11/17 03:03:58;;;;;;;4.10;3.10;;;;;;;3.10;80.55;99384.29;126735;1278;107635;-79
2022/11/17 03:07:20;;;;;;;6.10;3.50;;;;;;;3.16;80.64;99386.13;126927;1278;107542;-78
2022/11/17 03:10:38;;;;;;;5.40;3.50;;;;;;;3.23;80.85;99385.35;126936;1294;107513;-77
2022/11/17 03:13:49;;;;;;;5.20;3.70;;;;;;;3.24;80.26;99389.38;126811;1278;107558;-79
2022/11/17 03:17:01;;;;;;;4.40;3.60;;;;;;;3.23;80.34;99384.34;126810;1277;106011;-77
2022/11/17 03:20:16;;;;;;;4.80;3.50;;;;;;;3.19;80.12;99391.90;126935;1281;105445;-80
2022/11/17 03:23:28;;;;;;;4.70;3.60;;;;;;;3.15;80.23;99394.59;126861;1271;106002;-79
2022/11/17 03:26:39;;;;;;;4.70;3.50;;;;;;;3.11;80.06;99400.23;126752;1285;107530;-79
2022/11/17 03:29:46;;;;;;;5.10;3.90;;;;;;;3.07;80.25;99400.77;126829;1279;107453;-78
2022/11/17 03:32:58;;;;;;;5.10;3.80;;;;;;;3.04;80.23;99402.55;127120;1281;107494;-79
2022/11/17 03:36:07;;;;;;;6.40;4.10;;;;;;;3.01;80.30;99406.89;127151;1271;107556;-78
2022/11/17 03:39:19;;;;;;;7.50;4.20;;;;;;;3.01;80.30;99408.12;126875;1279;107670;-79
2022/11/17 03:42:29;;;;;;;4.80;3.70;;;;;;;3.01;80.04;99411.27;126894;1279;107538;-78
2022/11/17 03:45:37;;;;;;;5.00;3.80;;;;;;;3.04;80.05;99408.02;126912;1288;107539;-77
2022/11/17 03:48:48;;;;;;;5.10;4.00;;;;;;;3.07;79.87;99404.65;126807;1271;108056;-79
2022/11/17 03:51:54;;;;;;;6.40;4.40;;;;;;;3.07;79.81;99410.02;126797;1288;107539;-78
2022/11/17 03:55:00;;;;;;;5.50;3.90;;;;;;;3.06;79.53;99405.89;126959;1295;107502;-77
2022/11/17 03:58:09;;;;;;;6.40;4.40;;;;;;;3.04;79.81;99405.92;126952;1281;105673;-79
2022/11/17 04:01:15;;;;;;;5.70;4.00;;;;;;;3.02;79.54;99402.05;127002;1279;107529;-79
2022/11/17 04:04:22;;;;;;;6.70;4.30;;;;;;;2.97;79.63;99401.77;127187;1295;106450;-80
2022/11/17 04:07:27;;;;;;;5.50;4.30;;;;;;;2.90;79.46;99400.36;127248;1280;107498;-80
2022/11/17 04:15:54;;;;;;;6.30;4.40;;;;;;;2.87;79.66;99404.33;126867;1293;107368;-78
2022/11/17 04:17:22;;;;;;;8.10;5.10;;;;;;;2.81;79.72;99403.92;126951;1278;107519;-78
2022/11/17 04:20:34;;;;;;;11.20;7.00;;;;;;;2.82;79.86;99402.63;126879;1291;107461;-78
2022/11/17 04:23:40;;;;;;;5.30;3.70;;;;;;;2.84;79.95;99405.95;126871;1278;107519;-78
2022/11/17 04:30:11;;;;;;;7.70;4.40;;;;;;;2.93;79.66;99407.35;126865;1283;107498;-78
2022/11/17 04:33:16;;;;;;;8.20;4.50;;;;;;;2.98;79.53;99408.34;127096;1293;107353;-78
2022/11/17 04:36:24;;;;;;;6.90;4.60;;;;;;;2.97;79.13;99413.70;126970;1286;105876;-78
2022/11/17 04:39:29;;;;;;;6.60;4.50;;;;;;;2.94;79.45;99408.65;127099;1277;109336;-79
2022/11/17 04:42:34;;;;;;;8.10;5.50;;;;;;;2.94;79.50;99411.78;127089;1294;107522;-80
2022/11/17 04:45:40;;;;;;;9.80;5.70;;;;;;;2.92;79.29;99413.05;126954;1279;107538;-79
2022/11/17 04:48:47;;;;;;;7.20;4.60;;;;;;;2.90;79.70;99406.02;127046;1285;106228;-80
2022/11/17 04:51:53;;;;;;;7.00;4.90;;;;;;;2.89;79.52;99406.74;127073;1277;107354;-79
2022/11/17 04:54:59;;;;;;;11.10;5.90;;;;;;;2.88;79.50;99411.40;127011;1284;105842;-79
2022/11/17 04:58:04;;;;;;;12.80;6.10;;;;;;;2.85;79.45;99411.29;127088;1279;107506;-80
2022/11/17 05:01:13;;;;;;;8.40;4.60;;;;;;;2.86;79.68;99413.67;127118;1271;107263;-80
2022/11/17 05:07:40;;;;;;;7.80;5.00;;;;;;;2.96;79.37;99408.49;127180;1292;107519;-79
2022/11/17 05:14:08;;;;;;;9.30;5.40;;;;;;;3.05;79.09;99416.23;127028;1285;107536;-79
2022/11/17 05:17:14;;;;;;;6.60;4.10;;;;;;;3.04;79.17;99414.16;127051;1278;105664;-79
2022/11/17 05:20:20;;;;;;;5.70;4.30;;;;;;;3.03;79.02;99415.33;126960;1282;107251;-79
2022/11/17 05:26:49;;;;;;;5.70;3.90;;;;;;;2.97;78.87;99414.73;126941;1278;107540;-79
2022/11/17 05:29:55;;;;;;;5.90;4.30;;;;;;;2.92;78.90;99414.41;127028;1278;107513;-79
2022/11/17 05:33:00;;;;;;;5.50;3.90;;;;;;;2.88;78.88;99409.70;127023;1285;107536;-80
2022/11/17 05:36:07;;;;;;;5.30;4.00;;;;;;;2.84;78.85;99403.36;127080;1285;108113;-79
2022/11/17 05:39:13;;;;;;;5.20;3.90;;;;;;;2.79;78.46;99410.80;126983;1277;107548;-78
2022/11/17 05:42:19;;;;;;;5.40;4.40;;;;;;;2.73;78.72;99410.02;127081;1288;107474;-79
2022/11/17 05:45:24;;;;;;;6.10;4.40;;;;;;;2.70;78.67;99412.02;127025;1278;105655;-80
2022/11/17 05:48:30;;;;;;;8.10;4.80;;;;;;;2.69;78.72;99414.48;127050;1279;106747;-79
2022/11/17 05:51:37;;;;;;;4.30;3.30;;;;;;;2.73;78.86;99410.84;126979;1280;107550;-79
2022/11/17 05:54:42;;;;;;;5.00;3.70;;;;;;;2.79;78.74;99409.54;127159;1273;107242;-80
2022/11/17 05:57:50;;;;;;;5.60;4.00;;;;;;;2.83;78.57;99406.56;127245;1287;107423;-80
2022/11/17 06:00:57;;;;;;;5.50;3.80;;;;;;;2.84;78.01;99408.64;127080;1287;107541;-78
2022/11/17 06:04:05;;;;;;;4.70;3.70;;;;;;;2.83;78.11;99410.60;126981;1278;105815;-79
2022/11/17 06:07:11;;;;;;;5.30;3.80;;;;;;;2.81;78.10;99416.92;127104;1285;107386;-79
2022/11/17 06:10:17;;;;;;;5.30;3.60;;;;;;;2.80;78.07;99421.40;127360;1281;107528;-79
2022/11/17 06:13:25;;;;;;;5.50;3.90;;;;;;;2.78;78.25;99423.30;127168;1277;107270;-80
2022/11/17 06:16:35;;;;;;;5.60;4.10;;;;;;;2.78;78.38;99428.77;127027;1280;107583;-80
2022/11/17 06:19:45;;;;;;;5.70;4.00;;;;;;;2.75;77.88;99432.51;127113;1278;107506;-74
2022/11/17 06:22:51;;;;;;;5.30;3.70;;;;;;;2.71;77.74;99435.64;127260;1274;106612;-72
2022/11/17 06:25:59;;;;;;;5.70;3.90;;;;;;;2.69;77.92;99435.24;127244;1281;105677;-72
2022/11/17 06:29:08;;;;;;;5.70;3.90;;;;;;;2.68;77.70;99439.67;126866;1281;107596;-72
2022/11/17 06:32:14;;;;;;;6.90;4.50;;;;;;;2.64;77.53;99437.76;126850;1276;107540;-72
2022/11/17 06:35:19;;;;;;;7.70;4.80;;;;;;;2.62;77.54;99433.92;126874;1278;107274;-72
2022/11/17 06:38:25;;;;;;;6.20;3.70;;;;;;;2.62;77.58;99435.14;126911;1278;107305;-72
2022/11/17 06:41:30;;;;;;;4.90;3.20;;;;;;;2.65;77.63;99443.83;127042;1285;107249;-71
2022/11/17 06:44:36;;;;;;;5.80;4.80;;;;;;;2.67;76.76;99444.16;126927;1278;107453;-71
2022/11/17 06:47:41;;;;;;;4.60;3.60;;;;;;;2.69;77.13;99438.20;127117;1285;107252;-72
2022/11/17 06:50:49;;;;;;;6.20;4.30;;;;;;;2.74;77.19;99440.48;127000;1284;107458;-72
2022/11/17 06:53:55;;;;;;;5.40;3.80;;;;;;;2.78;77.42;99438.27;126964;1274;107433;-72
2022/11/17 06:57:00;;;;;;;8.30;4.60;;;;;;;2.81;77.43;99439.25;126771;1294;105973;-72
2022/11/17 07:00:08;;;;;;;5.90;4.00;;;;;;;2.84;77.54;99444.24;126904;1285;107559;-72
2022/11/17 07:03:14;;;;;;;4.80;3.70;;;;;;;2.86;77.20;99437.80;126797;1277;107783;-72
2022/11/17 07:06:19;;;;;;;8.50;4.70;;;;;;;2.84;76.89;99440.08;126900;1277;106627;-71
2022/11/17 07:09:25;;;;;;;5.90;4.20;;;;;;;2.82;76.74;99442.88;126897;1292;107663;-72
2022/11/17 07:12:30;;;;;;;7.60;4.50;;;;;;;2.79;76.66;99441.00;126850;1284;107528;-72
2022/11/17 07:15:36;;;;;;;8.40;5.80;;;;;;;2.79;76.97;99446.64;127055;1281;107546;-73
2022/11/17 07:18:42;;;;;;;5.90;4.20;;;;;;;2.80;76.74;99451.82;127281;1281;107479;-72
2022/11/17 07:21:48;;;;;;;9.50;5.50;;;;;;;2.76;76.59;99450.83;127159;1277;107243;-72
2022/11/17 07:24:53;;;;;;;6.90;4.30;;;;;;;2.76;76.70;99450.86;127158;1274;105864;-73
2022/11/17 07:28:01;;;;;;;6.20;4.10;;;;;;;2.75;76.56;99449.20;127107;1277;106122;-72
2022/11/17 07:31:08;;;;;;;12.40;9.50;;;;;;;2.72;76.06;99449.91;127053;1278;107567;-72
2022/11/17 07:34:14;;;;;;;15.60;8.80;;;;;;;2.67;75.94;99450.13;126909;1278;107539;-73
2022/11/17 07:37:19;;;;;;;24.50;10.10;;;;;;;2.65;76.17;99453.45;127100;1295;107514;-73
2022/11/17 07:40:25;;;;;;;32.80;12.40;;;;;;;2.64;76.06;99458.48;127034;1287;106668;-71
2022/11/17 07:43:31;;;;;;;18.00;10.20;;;;;;;2.63;76.02;99458.77;126775;1288;107249;-73
2022/11/17 07:46:36;;;;;;;20.80;10.50;;;;;;;2.62;76.11;99458.80;126941;1285;107380;-72
2022/11/17 07:49:41;;;;;;;18.10;9.20;;;;;;;2.69;76.55;99457.90;126989;1280;107723;-72
2022/11/17 07:52:49;;;;;;;10.70;7.60;;;;;;;2.79;76.00;99459.63;127067;1294;107570;-72
2022/11/17 07:55:54;;;;;;;13.50;8.20;;;;;;;2.84;75.80;99452.17;127146;1280;107487;-72
2022/11/17 07:59:00;;;;;;;9.30;6.30;;;;;;;2.89;75.44;99446.15;127131;1288;107639;-74
2022/11/17 08:02:05;;;;;;;17.10;9.80;;;;;;;2.90;75.45;99444.98;126993;1285;107487;-72
2022/11/17 08:05:11;;;;;;;10.90;6.70;;;;;;;2.91;74.55;99442.64;126908;1285;106126;-72
2022/11/17 08:08:17;;;;;;;53.90;33.00;;;;;;;2.88;74.99;99448.85;127113;1284;107488;-73
2022/11/17 08:11:22;;;;;;;31.60;22.20;;;;;;;2.86;74.75;99450.42;126871;1293;108523;-72
2022/11/17 08:14:28;;;;;;;27.80;16.80;;;;;;;2.84;74.41;99454.79;126926;1277;107445;-72
2022/11/17 08:17:34;;;;;;;18.80;11.80;;;;;;;2.82;74.52;99458.83;126875;1284;107514;-72
2022/11/17 08:20:39;;;;;;;10.10;5.60;;;;;;;2.82;74.55;99461.30;126882;1288;106717;-72
2022/11/17 08:23:45;;;;;;;9.00;6.00;;;;;;;2.81;73.96;99461.05;126812;1280;107331;-72
2022/11/17 08:26:52;;;;;;;13.50;8.20;;;;;;;2.78;73.66;99459.66;126927;1284;107227;-71
2022/11/17 08:29:57;;;;;;;14.40;8.90;;;;;;;2.73;73.64;99460.56;126748;1285;107624;-71
2022/11/17 08:33:03;;;;;;;11.30;6.60;;;;;;;2.72;73.99;99457.00;126887;1281;107405;-71
2022/11/17 08:36:09;;;;;;;5.40;3.90;;;;;;;2.71;73.64;99459.52;126952;1294;107504;-71
2022/11/17 08:39:15;;;;;;;14.40;8.00;;;;;;;2.68;73.37;99459.09;126849;1295;107414;-72
2022/11/17 08:42:20;;;;;;;22.30;12.70;;;;;;;2.70;73.76;99460.65;126801;1285;107472;-71
2022/11/17 08:45:26;;;;;;;22.00;11.80;;;;;;;2.71;73.68;99461.74;126684;1285;107510;-72
2022/11/17 08:48:31;;;;;;;26.10;13.90;;;;;;;2.76;74.02;99467.36;126789;1280;106566;-72
2022/11/17 08:51:37;;;;;;;18.70;11.10;;;;;;;2.82;74.04;99471.80;126814;1284;107298;-73
2022/11/17 08:54:42;;;;;;;17.10;9.70;;;;;;;2.87;74.10;99468.98;126932;1278;107550;-73
2022/11/17 08:57:48;;;;;;;11.30;7.30;;;;;;;2.90;73.78;99466.76;127127;1284;105760;-72
2022/11/17 09:00:53;;;;;;;11.40;7.90;;;;;;;2.86;72.21;99472.68;127018;1277;106547;-71
2022/11/17 09:03:58;;;;;;;25.70;16.70;;;;;;;2.81;72.84;99472.80;126855;1285;107546;-73
2022/11/17 09:07:04;;;;;;;15.70;9.00;;;;;;;2.79;72.80;99474.04;126850;1279;107595;-71
2022/11/17 09:10:10;;;;;;;8.00;5.80;;;;;;;2.78;72.80;99475.30;126894;1277;107375;-71
2022/11/17 09:13:15;;;;;;;7.80;6.30;;;;;;;2.73;72.64;99469.15;126670;1277;108124;-71
2022/11/17 09:16:22;;;;;;;6.70;5.20;;;;;;;2.72;72.86;99468.38;126762;1295;108322;-72
2022/11/17 09:19:29;;;;;;;10.20;6.40;;;;;;;2.73;72.93;99469.34;126703;1278;109007;-74
2022/11/17 09:22:34;;;;;;;11.80;8.30;;;;;;;2.74;72.73;99466.30;126935;1286;107389;-73
2022/11/17 09:25:40;;;;;;;24.10;17.40;;;;;;;2.74;72.95;99462.28;126968;1281;105964;-71
2022/11/17 09:28:46;;;;;;;18.20;11.60;;;;;;;2.76;72.89;99462.27;126671;1287;107498;-72
2022/11/17 09:31:51;;;;;;;8.40;6.00;;;;;;;2.80;73.03;99461.27;126947;1286;107486;-71
2022/11/17 09:34:56;;;;;;;7.80;5.30;;;;;;;2.84;72.68;99464.47;126874;1287;107366;-72
2022/11/17 09:38:02;;;;;;;12.60;6.70;;;;;;;2.84;72.93;99464.32;126891;1288;107384;-72
2022/11/17 09:41:27;;;;;;;7.80;5.50;;;;;;;2.86;72.79;99461.81;126943;1291;107400;-72
2022/11/17 09:44:39;;;;;;;8.10;5.50;;;;;;;2.85;72.51;99464.01;126762;1294;107446;-71
2022/11/17 09:47:51;;;;;;;7.60;5.90;;;;;;;2.83;72.60;99458.77;126934;1277;106028;-71
2022/11/17 09:50:59;;;;;;;7.40;5.60;;;;;;;2.81;72.19;99456.83;126873;1285;106120;-72
2022/11/17 09:54:14;;;;;;;10.90;7.40;;;;;;;2.78;72.47;99454.75;126906;1285;106614;-71
2022/11/17 09:57:29;;;;;;;7.30;5.10;;;;;;;2.80;72.65;99452.12;126917;1288;107522;-72
2022/11/17 10:00:38;;;;;;;7.50;5.60;;;;;;;2.80;72.15;99447.73;127045;1288;107521;-72
2022/11/17 10:03:46;;;;;;;6.70;5.00;;;;;;;2.77;72.07;99447.95;126795;1285;105795;-72
2022/11/17 10:06:51;;;;;;;11.30;5.10;;;;;;;2.72;72.30;99442.89;127084;1284;105438;-71
2022/11/17 10:09:58;;;;;;;11.10;7.40;;;;;;;2.74;72.46;99443.29;126817;1285;107541;-71
2022/11/17 10:13:13;;;;;;;11.70;6.70;;;;;;;2.74;72.30;99438.86;127082;1285;107621;-70
2022/11/17 10:16:18;;;;;;;11.60;7.30;;;;;;;2.73;72.30;99436.66;126710;1281;108201;-70
2022/11/17 10:19:26;;;;;;;10.30;6.50;;;;;;;2.72;72.47;99436.81;126730;1295;107913;-70
2022/11/17 10:22:36;;;;;;;11.70;7.50;;;;;;;2.70;72.13;99431.11;126680;1295;108371;-71
2022/11/17 10:25:44;;;;;;;19.50;12.30;;;;;;;2.69;72.53;99434.86;126889;1281;106722;-72
2022/11/17 10:29:06;;;;;;;35.00;20.90;;;;;;;2.71;72.22;99437.94;126890;1281;107487;-72
2022/11/17 10:32:16;;;;;;;46.10;27.30;;;;;;;2.66;71.98;99434.46;126970;1292;107362;-72
2022/11/17 10:35:23;;;;;;;25.30;14.80;;;;;;;2.64;72.07;99438.09;126905;1288;107507;-72
2022/11/17 10:38:32;;;;;;;31.40;18.00;;;;;;;2.64;72.14;99441.64;127014;1291;107641;-72
2022/11/17 10:41:42;;;;;;;39.40;24.60;;;;;;;2.65;72.09;99438.38;127001;1296;107256;-73
2022/11/17 10:44:51;;;;;;;29.90;18.10;;;;;;;2.68;72.05;99439.02;126731;1285;107485;-71
2022/11/17 10:48:09;;;;;;;17.10;10.10;;;;;;;2.70;71.69;99438.52;127062;1284;108048;-71
2022/11/17 10:51:25;;;;;;;8.40;5.90;;;;;;;2.66;71.30;99440.91;126857;1282;107569;-72
2022/11/17 10:54:31;;;;;;;8.00;6.20;;;;;;;2.61;71.35;99443.63;126917;1281;107538;-72
2022/11/17 10:57:36;;;;;;;8.50;6.10;;;;;;;2.60;71.61;99448.66;126759;1292;107489;-73
2022/11/17 11:00:43;;;;;;;8.10;5.40;;;;;;;2.58;71.29;99447.53;126764;1282;108553;-71
2022/11/17 11:03:51;;;;;;;7.50;5.70;;;;;;;2.55;71.44;99442.17;126962;1285;107522;-72
2022/11/17 11:07:22;;;;;;;8.20;5.60;;;;;;;2.50;71.21;99435.20;126828;1285;108320;-71
2022/11/17 11:10:31;;;;;;;15.00;7.60;;;;;;;2.48;71.31;99435.33;126901;1287;107752;-72
2022/11/17 11:14:01;;;;;;;13.20;7.70;;;;;;;2.51;71.45;99434.62;127066;1279;106679;-72
2022/11/17 11:17:13;;;;;;;17.00;11.60;;;;;;;2.55;71.32;99433.17;127102;1285;107493;-73
2022/11/17 11:20:24;;;;;;;20.10;12.70;;;;;;;2.60;71.27;99434.27;126981;1281;107300;-70
2022/11/17 11:23:43;;;;;;;38.70;25.80;;;;;;;2.63;71.40;99432.03;126919;1282;107425;-72
2022/11/17 11:26:57;;;;;;;22.10;15.10;;;;;;;2.66;71.53;99431.45;127093;1284;106619;-72
2022/11/17 11:30:05;;;;;;;17.40;14.50;;;;;;;2.68;71.32;99431.09;127012;1279;107490;-71
2022/11/17 11:33:26;;;;;;;14.00;9.00;;;;;;;2.68;71.18;99430.38;126898;1279;107324;-72
2022/11/17 11:36:41;;;;;;;11.90;7.90;;;;;;;2.67;71.06;99427.55;126964;1281;107527;-72
2022/11/17 11:39:55;;;;;;;12.30;7.80;;;;;;;2.67;71.44;99430.16;126767;1295;107368;-72
2022/11/17 11:43:04;;;;;;;9.80;6.80;;;;;;;2.67;71.05;99429.41;126967;1290;107509;-71
2022/11/17 11:46:16;;;;;;;10.70;6.80;;;;;;;2.63;70.93;99425.42;126769;1294;107497;-71
2022/11/17 11:49:31;;;;;;;9.70;7.00;;;;;;;2.61;70.84;99425.92;126942;1279;106564;-72
2022/11/17 11:52:40;;;;;;;11.70;7.20;;;;;;;2.59;70.63;99429.95;126938;1285;107475;-73
2022/11/17 11:55:49;;;;;;;12.90;8.20;;;;;;;2.57;70.80;99423.64;126934;1277;107541;-71
2022/11/17 11:59:02;;;;;;;11.60;7.70;;;;;;;2.57;70.78;99426.98;126735;1279;107514;-72
2022/11/17 12:02:24;;;;;;;10.70;6.90;;;;;;;2.52;70.62;99428.67;126832;1285;107495;-72
2022/11/17 12:05:32;;;;;;;;;;;;;;;2.51;70.41;99435.11;127162;1287;110569;-72
2022/11/17 12:08:43;;;;;;;20.00;10.60;;;;;;;2.50;70.73;99427.95;126809;1281;106006;-73
2022/11/17 12:12:01;;;;;;;11.10;7.00;;;;;;;2.54;70.79;99425.52;126674;1284;107873;-73
2022/11/17 12:15:30;;;;;;;16.20;11.00;;;;;;;2.56;70.67;99423.30;126885;1292;107567;-72
2022/11/17 12:18:35;;;;;;;14.90;11.00;;;;;;;2.57;70.55;99419.19;126775;1287;107254;-72
2022/11/17 12:21:43;;;;;;;16.40;10.70;;;;;;;2.58;70.80;99419.15;126773;1285;107275;-72
2022/11/17 12:24:48;;;;;;;15.30;10.20;;;;;;;2.59;70.73;99415.18;126904;1285;107549;-71
2022/11/17 12:27:54;;;;;;;21.10;12.40;;;;;;;2.59;70.87;99410.75;127042;1279;107713;-72
2022/11/17 12:31:02;;;;;;;14.50;9.10;;;;;;;2.60;70.79;99410.69;127180;1284;107530;-72
2022/11/17 12:34:25;;;;;;;18.30;11.00;;;;;;;2.60;70.72;99414.22;127145;1284;107558;-71
2022/11/17 12:37:30;;;;;;;12.20;7.90;;;;;;;2.60;70.38;99415.12;127165;1285;107523;-73
2022/11/17 12:40:47;;;;;;;12.50;8.20;;;;;;;2.53;70.35;99411.42;127157;1285;107261;-71
2022/11/17 12:43:52;;;;;;;10.40;8.10;;;;;;;2.49;70.30;99415.98;127011;1287;107568;-72
2022/11/17 12:47:09;;;;;;;15.10;9.80;;;;;;;2.41;70.35;99411.87;126941;1285;107346;-71
2022/11/17 12:50:43;;;;;;;15.00;9.70;;;;;;;2.39;70.33;99414.33;126838;1284;107499;-71
2022/11/17 12:54:06;;;;;;;12.00;8.70;;;;;;;2.34;70.44;99408.35;126933;1301;107514;-71
2022/11/17 12:57:17;;;;;;;14.30;9.70;;;;;;;2.26;70.32;99401.11;127238;1285;107508;-71
2022/11/17 13:00:23;;;;;;;17.30;10.50;;;;;;;2.22;70.23;99402.48;127175;1284;107507;-72
2022/11/17 13:03:40;;;;;;;20.80;12.20;;;;;;;2.18;70.26;99404.03;126965;1291;107418;-71
2022/11/17 13:10:38;;;;;;;11.00;8.80;;;;;;;2.16;70.40;99401.00;122759;1328;639103;-71
2022/11/17 13:13:41;;;;;;;14.20;9.30;;;;;;;2.16;70.66;99402.59;125897;1300;95848;-71
2022/11/17 13:16:46;;;;;;;13.20;8.60;;;;;;;2.18;70.60;99403.67;125786;1301;94375;-72
2022/11/17 13:19:57;;;;;;;13.40;9.20;;;;;;;2.13;70.32;99401.21;125898;1284;107593;-72
2022/11/17 13:23:03;;;;;;;18.70;13.10;;;;;;;2.09;70.43;99399.80;125853;1289;107416;-72
2022/11/17 13:26:10;;;;;;;15.60;9.20;;;;;;;2.07;70.62;99407.15;126070;1288;107725;-71
2022/11/17 13:29:19;;;;;;;12.60;8.50;;;;;;;2.03;70.17;99410.28;126149;1298;107611;-71
2022/11/17 13:32:27;;;;;;;14.90;10.50;;;;;;;1.99;70.26;99413.05;126021;1304;107737;-71
2022/11/17 13:35:32;;;;;;;17.50;11.70;;;;;;;1.95;70.37;99414.59;126008;1289;108325;-72
2022/11/17 13:38:35;;;;;;;16.90;11.20;;;;;;;1.92;70.24;99412.02;125936;1298;107671;-72
2022/11/17 13:41:38;;;;;;;13.40;9.30;;;;;;;1.88;70.27;99408.41;125977;1288;95377;-72
2022/11/17 13:44:41;;;;;;;16.20;10.40;;;;;;;1.83;70.20;99401.27;125985;1294;107461;-72
2022/11/17 13:47:46;;;;;;;14.60;10.10;;;;;;;1.78;70.42;99401.67;126487;1305;107445;-72
2022/11/17 13:50:49;;;;;;;16.80;11.10;;;;;;;1.77;70.35;99398.40;126562;1291;107548;-72
2022/11/17 13:53:55;;;;;;;18.40;11.50;;;;;;;1.74;70.37;99402.83;126534;1282;96439;-72
2022/11/17 13:57:02;;;;;;;15.60;9.40;;;;;;;1.74;70.47;99399.00;126509;1282;107520;-72
2022/11/17 14:00:16;;;;;;;15.70;10.50;;;;;;;1.71;70.18;99402.94;126568;1282;107563;-71
2022/11/17 14:03:33;;;;;;;15.40;10.10;;;;;;;1.64;70.16;99407.48;126629;1282;107527;-73
2022/11/17 14:06:57;;;;;;;15.60;10.30;;;;;;;1.62;70.42;99403.46;126586;1281;107701;-72
2022/11/17 14:10:13;;;;;;;19.90;12.50;;;;;;;1.60;70.10;99398.85;126514;1281;107557;-72
2022/11/17 14:13:20;;;;;;;24.20;16.20;;;;;;;1.55;70.09;99395.20;126575;1282;107614;-72
2022/11/17 14:16:26;;;;;;;35.50;18.80;;;;;;;1.54;70.03;99390.51;126533;1281;107685;-71
2022/11/17 14:19:32;;;;;;;31.50;24.10;;;;;;;1.52;70.23;99388.73;126561;1298;107504;-71
2022/11/17 14:22:35;;;;;;;24.50;17.00;;;;;;;1.51;70.33;99390.41;126646;1290;107616;-72
2022/11/17 14:25:40;;;;;;;28.40;16.20;;;;;;;1.53;70.30;99390.38;126764;1284;95297;-72
2022/11/17 14:28:42;;;;;;;22.70;13.00;;;;;;;1.54;70.40;99391.54;126665;1287;107559;-71
2022/11/17 14:31:45;;;;;;;57.80;30.50;;;;;;;1.55;70.38;99393.59;126643;1284;96891;-72
2022/11/17 14:34:48;;;;;;;51.90;25.30;;;;;;;1.56;70.29;99395.98;126689;1287;95302;-71
2022/11/17 14:37:50;;;;;;;23.70;14.10;;;;;;;1.55;70.14;99395.65;126746;1291;95276;-72
2022/11/17 14:40:53;;;;;;;18.00;11.10;;;;;;;1.53;70.09;99394.45;126617;1274;95310;-72
2022/11/17 14:43:56;;;;;;;16.90;10.70;;;;;;;1.50;70.17;99389.77;126613;1281;95768;-71
2022/11/17 14:46:59;;;;;;;21.00;13.20;;;;;;;1.48;70.30;99388.88;126556;1282;95710;-71
2022/11/17 14:50:02;;;;;;;19.20;12.10;;;;;;;1.47;70.19;99397.20;126541;1287;95359;-71
2022/11/17 14:53:05;;;;;;;24.90;14.80;;;;;;;1.48;70.36;99398.71;126631;1290;95800;-71
2022/11/17 14:56:09;;;;;;;20.90;12.20;;;;;;;1.50;70.18;99402.20;126614;1284;95541;-72
2022/11/17 14:59:12;;;;;;;24.60;13.40;;;;;;;1.52;70.38;99404.89;126688;1289;95306;-71